sensor_id;sensor_type;location;lat;lon;timestamp;P1;durP1;ratioP1;P2;durP2;ratioP2
51270;SDS011;37744;50.960;4.136;2023-03-01T00:01:45;17.38;;;9.77;;
51270;SDS011;37744;50.960;4.136;2023-03-01T00:04:10;17.92;;;10.38;;
51270;SDS011;37744;50.960;4.136;2023-03-01T00:06:36;17.85;;;10.27;;
51270;SDS011;37744;50.960;4.136;2023-03-01T00:09:02;16.88;;;9.45;;
51270;SDS011;37744;50.960;4.136;2023-03-01T00:11:28;15.90;;;8.75;;
51270;SDS011;37744;50.960;4.136;2023-03-01T00:13:55;17.65;;;9.50;;
51270;SDS011;37744;50.960;4.136;2023-03-01T00:16:24;15.68;;;9.40;;
51270;SDS011;37744;50.960;4.136;2023-03-01T00:18:49;18.02;;;10.55;;
51270;SDS011;37744;50.960;4.136;2023-03-01T00:21:15;21.25;;;10.60;;
51270;SDS011;37744;50.960;4.136;2023-03-01T00:23:41;22.30;;;11.13;;
51270;SDS011;37744;50.960;4.136;2023-03-01T00:26:11;19.52;;;10.23;;
51270;SDS011;37744;50.960;4.136;2023-03-01T00:28:37;18.20;;;10.00;;
51270;SDS011;37744;50.960;4.136;2023-03-01T00:31:07;14.15;;;9.43;;
51270;SDS011;37744;50.960;4.136;2023-03-01T00:33:32;18.90;;;9.82;;
51270;SDS011;37744;50.960;4.136;2023-03-01T00:35:58;18.08;;;10.60;;
51270;SDS011;37744;50.960;4.136;2023-03-01T00:38:24;43.58;;;21.30;;
51270;SDS011;37744;50.960;4.136;2023-03-01T00:40:49;61.28;;;26.85;;
51270;SDS011;37744;50.960;4.136;2023-03-01T00:43:14;50.08;;;24.15;;
51270;SDS011;37744;50.960;4.136;2023-03-01T00:45:39;32.30;;;16.58;;
51270;SDS011;37744;50.960;4.136;2023-03-01T00:48:05;25.65;;;14.38;;
51270;SDS011;37744;50.960;4.136;2023-03-01T00:50:30;21.35;;;11.88;;
51270;SDS011;37744;50.960;4.136;2023-03-01T00:52:55;19.40;;;10.77;;
51270;SDS011;37744;50.960;4.136;2023-03-01T00:55:21;20.98;;;10.85;;
51270;SDS011;37744;50.960;4.136;2023-03-01T00:57:46;17.88;;;9.57;;
51270;SDS011;37744;50.960;4.136;2023-03-01T01:00:11;22.27;;;10.90;;
51270;SDS011;37744;50.960;4.136;2023-03-01T01:02:37;17.52;;;9.32;;
51270;SDS011;37744;50.960;4.136;2023-03-01T01:05:03;14.98;;;9.52;;
51270;SDS011;37744;50.960;4.136;2023-03-01T01:07:28;13.18;;;9.23;;
51270;SDS011;37744;50.960;4.136;2023-03-01T01:09:53;13.48;;;8.27;;
51270;SDS011;37744;50.960;4.136;2023-03-01T01:12:19;16.15;;;8.75;;
51270;SDS011;37744;50.960;4.136;2023-03-01T01:14:44;14.32;;;8.38;;
51270;SDS011;37744;50.960;4.136;2023-03-01T01:17:09;16.20;;;8.55;;
51270;SDS011;37744;50.960;4.136;2023-03-01T01:19:35;18.67;;;8.88;;
51270;SDS011;37744;50.960;4.136;2023-03-01T01:22:01;14.82;;;9.38;;
51270;SDS011;37744;50.960;4.136;2023-03-01T01:24:28;15.90;;;8.63;;
51270;SDS011;37744;50.960;4.136;2023-03-01T01:26:53;21.00;;;9.60;;
51270;SDS011;37744;50.960;4.136;2023-03-01T01:29:18;19.08;;;9.75;;
51270;SDS011;37744;50.960;4.136;2023-03-01T01:31:44;17.02;;;9.02;;
51270;SDS011;37744;50.960;4.136;2023-03-01T01:34:13;15.15;;;9.48;;
51270;SDS011;37744;50.960;4.136;2023-03-01T01:36:39;20.52;;;10.40;;
51270;SDS011;37744;50.960;4.136;2023-03-01T01:39:04;17.40;;;10.15;;
51270;SDS011;37744;50.960;4.136;2023-03-01T01:41:30;16.25;;;9.65;;
51270;SDS011;37744;50.960;4.136;2023-03-01T01:46:44;16.98;;;9.68;;
51270;SDS011;37744;50.960;4.136;2023-03-01T01:49:33;16.52;;;9.35;;
51270;SDS011;37744;50.960;4.136;2023-03-01T01:52:18;16.80;;;9.05;;
51270;SDS011;37744;50.960;4.136;2023-03-01T01:54:44;15.60;;;9.20;;
51270;SDS011;37744;50.960;4.136;2023-03-01T01:57:13;15.75;;;9.35;;
51270;SDS011;37744;50.960;4.136;2023-03-01T01:59:39;15.43;;;9.00;;
51270;SDS011;37744;50.960;4.136;2023-03-01T02:02:05;15.30;;;8.70;;
51270;SDS011;37744;50.960;4.136;2023-03-01T02:04:31;18.92;;;9.32;;
51270;SDS011;37744;50.960;4.136;2023-03-01T02:06:58;14.00;;;8.68;;
51270;SDS011;37744;50.960;4.136;2023-03-01T02:09:25;20.65;;;9.35;;
51270;SDS011;37744;50.960;4.136;2023-03-01T02:11:51;15.05;;;8.32;;
51270;SDS011;37744;50.960;4.136;2023-03-01T02:14:17;15.90;;;8.93;;
51270;SDS011;37744;50.960;4.136;2023-03-01T02:16:42;15.82;;;8.90;;
51270;SDS011;37744;50.960;4.136;2023-03-01T02:19:08;13.98;;;8.98;;
51270;SDS011;37744;50.960;4.136;2023-03-01T02:21:49;15.75;;;8.77;;
51270;SDS011;37744;50.960;4.136;2023-03-01T02:26:46;17.92;;;10.43;;
51270;SDS011;37744;50.960;4.136;2023-03-01T02:29:12;14.45;;;9.43;;
51270;SDS011;37744;50.960;4.136;2023-03-01T02:31:37;15.43;;;8.80;;
51270;SDS011;37744;50.960;4.136;2023-03-01T02:34:13;14.65;;;8.57;;
51270;SDS011;37744;50.960;4.136;2023-03-01T02:36:44;15.27;;;9.05;;
51270;SDS011;37744;50.960;4.136;2023-03-01T02:39:12;15.63;;;8.85;;
51270;SDS011;37744;50.960;4.136;2023-03-01T02:41:39;17.13;;;9.55;;
51270;SDS011;37744;50.960;4.136;2023-03-01T02:44:05;16.20;;;9.57;;
51270;SDS011;37744;50.960;4.136;2023-03-01T02:46:31;17.42;;;9.60;;
51270;SDS011;37744;50.960;4.136;2023-03-01T02:48:57;18.77;;;10.00;;
51270;SDS011;37744;50.960;4.136;2023-03-01T02:54:08;16.35;;;9.57;;
51270;SDS011;37744;50.960;4.136;2023-03-01T02:56:36;14.23;;;8.82;;
51270;SDS011;37744;50.960;4.136;2023-03-01T02:59:01;16.48;;;9.13;;
51270;SDS011;37744;50.960;4.136;2023-03-01T03:01:27;16.52;;;9.27;;
51270;SDS011;37744;50.960;4.136;2023-03-01T03:04:02;14.85;;;9.77;;
51270;SDS011;37744;50.960;4.136;2023-03-01T03:06:28;20.75;;;10.38;;
51270;SDS011;37744;50.960;4.136;2023-03-01T03:08:54;28.15;;;12.52;;
51270;SDS011;37744;50.960;4.136;2023-03-01T03:11:19;27.23;;;13.23;;
51270;SDS011;37744;50.960;4.136;2023-03-01T03:13:45;22.25;;;12.25;;
51270;SDS011;37744;50.960;4.136;2023-03-01T03:16:13;19.58;;;10.75;;
51270;SDS011;37744;50.960;4.136;2023-03-01T03:18:38;21.05;;;10.63;;
51270;SDS011;37744;50.960;4.136;2023-03-01T03:21:03;16.65;;;9.43;;
51270;SDS011;37744;50.960;4.136;2023-03-01T03:23:32;17.67;;;9.80;;
51270;SDS011;37744;50.960;4.136;2023-03-01T03:25:57;17.92;;;8.98;;
51270;SDS011;37744;50.960;4.136;2023-03-01T03:28:22;17.50;;;10.02;;
51270;SDS011;37744;50.960;4.136;2023-03-01T03:30:48;15.40;;;9.38;;
51270;SDS011;37744;50.960;4.136;2023-03-01T03:33:13;19.02;;;9.77;;
51270;SDS011;37744;50.960;4.136;2023-03-01T03:35:44;13.50;;;8.43;;
51270;SDS011;37744;50.960;4.136;2023-03-01T03:38:11;18.80;;;9.40;;
51270;SDS011;37744;50.960;4.136;2023-03-01T03:40:41;14.65;;;9.10;;
51270;SDS011;37744;50.960;4.136;2023-03-01T03:43:08;14.43;;;8.82;;
51270;SDS011;37744;50.960;4.136;2023-03-01T03:45:33;16.20;;;9.05;;
51270;SDS011;37744;50.960;4.136;2023-03-01T03:48:00;14.48;;;9.10;;
51270;SDS011;37744;50.960;4.136;2023-03-01T03:50:25;17.50;;;9.20;;
51270;SDS011;37744;50.960;4.136;2023-03-01T03:52:51;18.48;;;9.65;;
51270;SDS011;37744;50.960;4.136;2023-03-01T03:55:16;13.57;;;8.68;;
51270;SDS011;37744;50.960;4.136;2023-03-01T03:57:44;22.95;;;9.52;;
51270;SDS011;37744;50.960;4.136;2023-03-01T04:00:11;18.67;;;9.43;;
51270;SDS011;37744;50.960;4.136;2023-03-01T04:02:44;16.23;;;8.98;;
51270;SDS011;37744;50.960;4.136;2023-03-01T04:05:10;16.52;;;8.90;;
51270;SDS011;37744;50.960;4.136;2023-03-01T04:07:36;20.10;;;9.27;;
51270;SDS011;37744;50.960;4.136;2023-03-01T04:10:02;18.33;;;9.38;;
51270;SDS011;37744;50.960;4.136;2023-03-01T04:12:28;16.35;;;9.63;;
51270;SDS011;37744;50.960;4.136;2023-03-01T04:14:53;16.13;;;9.30;;
51270;SDS011;37744;50.960;4.136;2023-03-01T04:17:19;17.02;;;9.20;;
51270;SDS011;37744;50.960;4.136;2023-03-01T04:19:44;15.80;;;9.15;;
51270;SDS011;37744;50.960;4.136;2023-03-01T04:22:13;15.95;;;9.27;;
51270;SDS011;37744;50.960;4.136;2023-03-01T04:24:43;16.10;;;8.93;;
51270;SDS011;37744;50.960;4.136;2023-03-01T04:27:09;16.73;;;9.50;;
51270;SDS011;37744;50.960;4.136;2023-03-01T04:29:34;15.40;;;8.95;;
51270;SDS011;37744;50.960;4.136;2023-03-01T04:31:59;16.73;;;9.30;;
51270;SDS011;37744;50.960;4.136;2023-03-01T04:34:24;19.52;;;9.88;;
51270;SDS011;37744;50.960;4.136;2023-03-01T04:36:52;16.40;;;8.68;;
51270;SDS011;37744;50.960;4.136;2023-03-01T04:39:17;15.88;;;8.82;;
51270;SDS011;37744;50.960;4.136;2023-03-01T04:41:42;16.85;;;9.40;;
51270;SDS011;37744;50.960;4.136;2023-03-01T04:44:10;19.05;;;9.70;;
51270;SDS011;37744;50.960;4.136;2023-03-01T04:46:36;19.98;;;9.10;;
51270;SDS011;37744;50.960;4.136;2023-03-01T04:49:02;19.83;;;8.65;;
51270;SDS011;37744;50.960;4.136;2023-03-01T04:51:27;17.90;;;9.57;;
51270;SDS011;37744;50.960;4.136;2023-03-01T04:53:52;19.40;;;9.88;;
51270;SDS011;37744;50.960;4.136;2023-03-01T04:56:18;18.42;;;9.68;;
51270;SDS011;37744;50.960;4.136;2023-03-01T04:58:43;19.05;;;8.98;;
51270;SDS011;37744;50.960;4.136;2023-03-01T05:01:13;19.98;;;9.30;;
51270;SDS011;37744;50.960;4.136;2023-03-01T05:03:46;18.00;;;9.70;;
51270;SDS011;37744;50.960;4.136;2023-03-01T05:06:14;18.00;;;9.85;;
51270;SDS011;37744;50.960;4.136;2023-03-01T05:08:40;17.90;;;9.27;;
51270;SDS011;37744;50.960;4.136;2023-03-01T05:11:05;19.60;;;9.45;;
51270;SDS011;37744;50.960;4.136;2023-03-01T05:13:30;16.70;;;8.82;;
51270;SDS011;37744;50.960;4.136;2023-03-01T05:15:57;14.60;;;8.73;;
51270;SDS011;37744;50.960;4.136;2023-03-01T05:18:23;18.30;;;9.77;;
51270;SDS011;37744;50.960;4.136;2023-03-01T05:20:54;17.40;;;9.60;;
51270;SDS011;37744;50.960;4.136;2023-03-01T05:23:21;18.73;;;9.63;;
51270;SDS011;37744;50.960;4.136;2023-03-01T05:25:47;17.02;;;9.70;;
51270;SDS011;37744;50.960;4.136;2023-03-01T05:28:12;19.17;;;9.88;;
51270;SDS011;37744;50.960;4.136;2023-03-01T05:30:38;18.08;;;10.43;;
51270;SDS011;37744;50.960;4.136;2023-03-01T05:33:04;17.23;;;9.23;;
51270;SDS011;37744;50.960;4.136;2023-03-01T05:35:29;15.40;;;9.13;;
51270;SDS011;37744;50.960;4.136;2023-03-01T05:37:57;15.20;;;8.00;;
51270;SDS011;37744;50.960;4.136;2023-03-01T05:40:23;14.77;;;8.77;;
51270;SDS011;37744;50.960;4.136;2023-03-01T05:42:50;17.65;;;8.93;;
51270;SDS011;37744;50.960;4.136;2023-03-01T05:45:16;16.20;;;8.85;;
51270;SDS011;37744;50.960;4.136;2023-03-01T05:47:42;17.83;;;10.05;;
51270;SDS011;37744;50.960;4.136;2023-03-01T05:50:31;17.98;;;9.82;;
51270;SDS011;37744;50.960;4.136;2023-03-01T05:52:58;18.35;;;8.98;;
51270;SDS011;37744;50.960;4.136;2023-03-01T05:55:24;14.32;;;8.82;;
51270;SDS011;37744;50.960;4.136;2023-03-01T05:57:49;18.23;;;8.90;;
51270;SDS011;37744;50.960;4.136;2023-03-01T06:00:18;17.85;;;9.20;;
51270;SDS011;37744;50.960;4.136;2023-03-01T06:02:44;17.02;;;9.30;;
51270;SDS011;37744;50.960;4.136;2023-03-01T06:05:10;14.65;;;8.65;;
51270;SDS011;37744;50.960;4.136;2023-03-01T06:07:36;16.92;;;9.48;;
51270;SDS011;37744;50.960;4.136;2023-03-01T06:10:02;19.63;;;9.40;;
51270;SDS011;37744;50.960;4.136;2023-03-01T06:12:30;18.45;;;9.07;;
51270;SDS011;37744;50.960;4.136;2023-03-01T06:14:55;16.67;;;8.60;;
51270;SDS011;37744;50.960;4.136;2023-03-01T06:17:20;14.75;;;9.25;;
51270;SDS011;37744;50.960;4.136;2023-03-01T06:19:46;18.00;;;9.50;;
51270;SDS011;37744;50.960;4.136;2023-03-01T06:22:12;20.35;;;9.38;;
51270;SDS011;37744;50.960;4.136;2023-03-01T06:24:37;15.80;;;9.45;;
51270;SDS011;37744;50.960;4.136;2023-03-01T06:27:02;19.70;;;10.43;;
51270;SDS011;37744;50.960;4.136;2023-03-01T06:29:28;19.50;;;9.70;;
51270;SDS011;37744;50.960;4.136;2023-03-01T06:31:53;15.85;;;8.95;;
51270;SDS011;37744;50.960;4.136;2023-03-01T06:34:18;17.85;;;10.32;;
51270;SDS011;37744;50.960;4.136;2023-03-01T06:36:44;18.17;;;9.77;;
51270;SDS011;37744;50.960;4.136;2023-03-01T06:39:09;16.88;;;9.70;;
51270;SDS011;37744;50.960;4.136;2023-03-01T06:41:35;17.40;;;9.27;;
51270;SDS011;37744;50.960;4.136;2023-03-01T06:44:00;17.08;;;9.55;;
51270;SDS011;37744;50.960;4.136;2023-03-01T06:46:25;18.67;;;9.82;;
51270;SDS011;37744;50.960;4.136;2023-03-01T06:48:51;18.65;;;9.50;;
51270;SDS011;37744;50.960;4.136;2023-03-01T06:51:16;20.25;;;9.68;;
51270;SDS011;37744;50.960;4.136;2023-03-01T06:53:41;19.77;;;10.07;;
51270;SDS011;37744;50.960;4.136;2023-03-01T06:56:06;19.23;;;9.88;;
51270;SDS011;37744;50.960;4.136;2023-03-01T06:58:32;18.55;;;9.88;;
51270;SDS011;37744;50.960;4.136;2023-03-01T07:00:57;19.10;;;9.85;;
51270;SDS011;37744;50.960;4.136;2023-03-01T07:03:22;21.90;;;10.18;;
51270;SDS011;37744;50.960;4.136;2023-03-01T07:05:48;20.67;;;9.70;;
51270;SDS011;37744;50.960;4.136;2023-03-01T07:08:14;18.27;;;9.93;;
51270;SDS011;37744;50.960;4.136;2023-03-01T07:10:39;21.88;;;10.20;;
51270;SDS011;37744;50.960;4.136;2023-03-01T07:13:04;21.27;;;12.20;;
51270;SDS011;37744;50.960;4.136;2023-03-01T07:15:31;24.98;;;13.20;;
51270;SDS011;37744;50.960;4.136;2023-03-01T07:17:57;19.75;;;11.57;;
51270;SDS011;37744;50.960;4.136;2023-03-01T07:20:23;17.50;;;10.35;;
51270;SDS011;37744;50.960;4.136;2023-03-01T07:22:50;17.73;;;10.07;;
51270;SDS011;37744;50.960;4.136;2023-03-01T07:25:17;20.92;;;9.60;;
51270;SDS011;37744;50.960;4.136;2023-03-01T07:27:42;18.40;;;10.60;;
51270;SDS011;37744;50.960;4.136;2023-03-01T07:30:07;19.80;;;10.52;;
51270;SDS011;37744;50.960;4.136;2023-03-01T07:32:33;22.17;;;10.98;;
51270;SDS011;37744;50.960;4.136;2023-03-01T07:34:58;20.48;;;10.50;;
51270;SDS011;37744;50.960;4.136;2023-03-01T07:37:24;20.85;;;9.95;;
51270;SDS011;37744;50.960;4.136;2023-03-01T07:39:49;20.23;;;10.30;;
51270;SDS011;37744;50.960;4.136;2023-03-01T07:42:14;19.35;;;9.82;;
51270;SDS011;37744;50.960;4.136;2023-03-01T07:44:39;19.20;;;10.27;;
51270;SDS011;37744;50.960;4.136;2023-03-01T07:47:05;19.35;;;10.63;;
51270;SDS011;37744;50.960;4.136;2023-03-01T07:49:30;23.58;;;10.20;;
51270;SDS011;37744;50.960;4.136;2023-03-01T07:51:55;22.80;;;9.82;;
51270;SDS011;37744;50.960;4.136;2023-03-01T07:54:21;19.80;;;10.57;;
51270;SDS011;37744;50.960;4.136;2023-03-01T07:56:46;19.52;;;10.25;;
51270;SDS011;37744;50.960;4.136;2023-03-01T07:59:11;16.33;;;10.30;;
51270;SDS011;37744;50.960;4.136;2023-03-01T08:01:37;21.50;;;10.60;;
51270;SDS011;37744;50.960;4.136;2023-03-01T08:04:02;20.20;;;9.85;;
51270;SDS011;37744;50.960;4.136;2023-03-01T08:06:29;17.33;;;10.10;;
51270;SDS011;37744;50.960;4.136;2023-03-01T08:08:55;22.15;;;10.35;;
51270;SDS011;37744;50.960;4.136;2023-03-01T08:11:20;18.48;;;9.68;;
51270;SDS011;37744;50.960;4.136;2023-03-01T08:13:47;19.42;;;9.90;;
51270;SDS011;37744;50.960;4.136;2023-03-01T08:16:13;23.55;;;10.00;;
51270;SDS011;37744;50.960;4.136;2023-03-01T08:18:39;20.83;;;9.85;;
51270;SDS011;37744;50.960;4.136;2023-03-01T08:21:05;19.35;;;10.40;;
51270;SDS011;37744;50.960;4.136;2023-03-01T08:23:31;18.33;;;10.13;;
51270;SDS011;37744;50.960;4.136;2023-03-01T08:26:07;17.70;;;9.38;;
51270;SDS011;37744;50.960;4.136;2023-03-01T08:28:33;16.33;;;9.77;;
51270;SDS011;37744;50.960;4.136;2023-03-01T08:30:58;16.83;;;9.57;;
51270;SDS011;37744;50.960;4.136;2023-03-01T08:33:23;18.73;;;8.77;;
51270;SDS011;37744;50.960;4.136;2023-03-01T08:35:48;14.73;;;9.02;;
51270;SDS011;37744;50.960;4.136;2023-03-01T08:38:14;20.35;;;10.05;;
51270;SDS011;37744;50.960;4.136;2023-03-01T08:40:39;18.95;;;9.63;;
51270;SDS011;37744;50.960;4.136;2023-03-01T08:43:04;18.52;;;9.75;;
51270;SDS011;37744;50.960;4.136;2023-03-01T08:45:30;15.95;;;9.52;;
51270;SDS011;37744;50.960;4.136;2023-03-01T08:47:55;23.20;;;10.48;;
51270;SDS011;37744;50.960;4.136;2023-03-01T08:50:20;17.40;;;9.43;;
51270;SDS011;37744;50.960;4.136;2023-03-01T08:52:45;16.95;;;9.50;;
51270;SDS011;37744;50.960;4.136;2023-03-01T08:55:11;19.83;;;10.32;;
51270;SDS011;37744;50.960;4.136;2023-03-01T08:57:36;16.02;;;9.02;;
51270;SDS011;37744;50.960;4.136;2023-03-01T09:00:02;17.13;;;9.05;;
51270;SDS011;37744;50.960;4.136;2023-03-01T09:02:28;21.27;;;9.75;;
51270;SDS011;37744;50.960;4.136;2023-03-01T09:04:53;19.33;;;9.95;;
51270;SDS011;37744;50.960;4.136;2023-03-01T09:07:18;15.23;;;9.27;;
51270;SDS011;37744;50.960;4.136;2023-03-01T09:09:44;16.98;;;9.63;;
51270;SDS011;37744;50.960;4.136;2023-03-01T09:12:09;16.45;;;9.27;;
51270;SDS011;37744;50.960;4.136;2023-03-01T09:14:34;16.13;;;9.52;;
51270;SDS011;37744;50.960;4.136;2023-03-01T09:17:02;15.57;;;9.52;;
51270;SDS011;37744;50.960;4.136;2023-03-01T09:19:28;17.20;;;9.73;;
51270;SDS011;37744;50.960;4.136;2023-03-01T09:21:53;16.20;;;9.30;;
51270;SDS011;37744;50.960;4.136;2023-03-01T09:24:20;19.20;;;10.02;;
51270;SDS011;37744;50.960;4.136;2023-03-01T09:26:45;17.23;;;8.95;;
51270;SDS011;37744;50.960;4.136;2023-03-01T09:29:11;14.82;;;9.27;;
51270;SDS011;37744;50.960;4.136;2023-03-01T09:31:36;16.95;;;10.63;;
51270;SDS011;37744;50.960;4.136;2023-03-01T09:34:02;18.02;;;9.35;;
51270;SDS011;37744;50.960;4.136;2023-03-01T09:36:27;15.02;;;9.15;;
51270;SDS011;37744;50.960;4.136;2023-03-01T09:38:53;15.48;;;8.95;;
51270;SDS011;37744;50.960;4.136;2023-03-01T09:43:51;15.82;;;9.07;;
51270;SDS011;37744;50.960;4.136;2023-03-01T09:46:21;14.43;;;8.95;;
51270;SDS011;37744;50.960;4.136;2023-03-01T09:51:23;15.85;;;8.80;;
51270;SDS011;37744;50.960;4.136;2023-03-01T09:53:50;16.30;;;8.75;;
51270;SDS011;37744;50.960;4.136;2023-03-01T09:56:32;15.10;;;9.13;;
51270;SDS011;37744;50.960;4.136;2023-03-01T10:06:47;17.85;;;9.40;;
51270;SDS011;37744;50.960;4.136;2023-03-01T10:09:16;15.20;;;8.07;;
51270;SDS011;37744;50.960;4.136;2023-03-01T10:11:44;14.38;;;8.70;;
51270;SDS011;37744;50.960;4.136;2023-03-01T10:19:18;16.05;;;9.00;;
51270;SDS011;37744;50.960;4.136;2023-03-01T10:21:46;13.27;;;8.02;;
51270;SDS011;37744;50.960;4.136;2023-03-01T10:24:12;15.48;;;8.70;;
51270;SDS011;37744;50.960;4.136;2023-03-01T10:29:10;12.35;;;8.27;;
51270;SDS011;37744;50.960;4.136;2023-03-01T10:34:14;17.80;;;8.70;;
51270;SDS011;37744;50.960;4.136;2023-03-01T10:36:40;11.88;;;8.10;;
51270;SDS011;37744;50.960;4.136;2023-03-01T10:39:11;17.52;;;8.52;;
51270;SDS011;37744;50.960;4.136;2023-03-01T10:41:37;14.70;;;8.35;;
51270;SDS011;37744;50.960;4.136;2023-03-01T10:44:05;14.20;;;8.18;;
51270;SDS011;37744;50.960;4.136;2023-03-01T10:46:34;13.30;;;8.48;;
51270;SDS011;37744;50.960;4.136;2023-03-01T10:49:07;15.30;;;8.40;;
51270;SDS011;37744;50.960;4.136;2023-03-01T10:51:36;20.92;;;8.32;;
51270;SDS011;37744;50.960;4.136;2023-03-01T10:54:03;14.02;;;7.85;;
51270;SDS011;37744;50.960;4.136;2023-03-01T10:56:29;17.60;;;7.53;;
51270;SDS011;37744;50.960;4.136;2023-03-01T10:59:18;15.13;;;7.85;;
51270;SDS011;37744;50.960;4.136;2023-03-01T11:01:44;10.88;;;7.40;;
51270;SDS011;37744;50.960;4.136;2023-03-01T11:04:13;12.07;;;8.00;;
51270;SDS011;37744;50.960;4.136;2023-03-01T11:06:40;14.18;;;8.60;;
51270;SDS011;37744;50.960;4.136;2023-03-01T11:09:19;14.43;;;7.63;;
51270;SDS011;37744;50.960;4.136;2023-03-01T11:11:44;15.48;;;8.38;;
51270;SDS011;37744;50.960;4.136;2023-03-01T11:16:48;11.85;;;8.05;;
51270;SDS011;37744;50.960;4.136;2023-03-01T11:19:18;13.43;;;8.23;;
51270;SDS011;37744;50.960;4.136;2023-03-01T11:21:50;11.70;;;7.55;;
51270;SDS011;37744;50.960;4.136;2023-03-01T11:24:18;14.20;;;7.72;;
51270;SDS011;37744;50.960;4.136;2023-03-01T11:26:45;17.02;;;8.38;;
51270;SDS011;37744;50.960;4.136;2023-03-01T11:29:21;13.10;;;7.82;;
51270;SDS011;37744;50.960;4.136;2023-03-01T11:31:51;13.52;;;7.75;;
51270;SDS011;37744;50.960;4.136;2023-03-01T11:34:19;12.77;;;8.32;;
51270;SDS011;37744;50.960;4.136;2023-03-01T11:41:42;13.73;;;7.90;;
51270;SDS011;37744;50.960;4.136;2023-03-01T11:44:14;12.18;;;7.38;;
51270;SDS011;37744;50.960;4.136;2023-03-01T11:49:24;12.88;;;7.70;;
51270;SDS011;37744;50.960;4.136;2023-03-01T11:52:03;12.35;;;8.15;;
51270;SDS011;37744;50.960;4.136;2023-03-01T11:54:50;12.52;;;7.60;;
51270;SDS011;37744;50.960;4.136;2023-03-01T12:08:00;10.32;;;7.18;;
51270;SDS011;37744;50.960;4.136;2023-03-01T12:10:30;12.35;;;7.78;;
51270;SDS011;37744;50.960;4.136;2023-03-01T12:13:20;11.60;;;7.30;;
51270;SDS011;37744;50.960;4.136;2023-03-01T12:35:51;13.52;;;7.18;;
51270;SDS011;37744;50.960;4.136;2023-03-01T12:38:32;13.73;;;7.25;;
51270;SDS011;37744;50.960;4.136;2023-03-01T12:41:18;10.85;;;6.88;;
51270;SDS011;37744;50.960;4.136;2023-03-01T12:44:09;11.90;;;6.85;;
51270;SDS011;37744;50.960;4.136;2023-03-01T12:51:38;11.10;;;6.78;;
51270;SDS011;37744;50.960;4.136;2023-03-01T12:54:07;10.00;;;6.25;;
51270;SDS011;37744;50.960;4.136;2023-03-01T12:56:36;14.90;;;6.85;;
51270;SDS011;37744;50.960;4.136;2023-03-01T12:59:17;8.90;;;6.85;;
51270;SDS011;37744;50.960;4.136;2023-03-01T13:04:33;12.10;;;6.80;;
51270;SDS011;37744;50.960;4.136;2023-03-01T13:09:34;8.65;;;5.90;;
51270;SDS011;37744;50.960;4.136;2023-03-01T13:12:01;9.43;;;6.47;;
51270;SDS011;37744;50.960;4.136;2023-03-01T13:16:58;10.70;;;6.50;;
51270;SDS011;37744;50.960;4.136;2023-03-01T13:21:49;13.05;;;6.13;;
51270;SDS011;37744;50.960;4.136;2023-03-01T13:29:53;9.98;;;7.07;;
51270;SDS011;37744;50.960;4.136;2023-03-01T13:32:23;10.95;;;6.80;;
51270;SDS011;37744;50.960;4.136;2023-03-01T13:34:49;10.60;;;6.97;;
51270;SDS011;37744;50.960;4.136;2023-03-01T13:37:19;12.32;;;6.65;;
51270;SDS011;37744;50.960;4.136;2023-03-01T13:39:45;10.65;;;6.95;;
51270;SDS011;37744;50.960;4.136;2023-03-01T13:44:54;9.80;;;6.90;;
51270;SDS011;37744;50.960;4.136;2023-03-01T13:47:19;11.55;;;6.30;;
51270;SDS011;37744;50.960;4.136;2023-03-01T13:49:52;10.52;;;6.72;;
51270;SDS011;37744;50.960;4.136;2023-03-01T13:54:53;11.25;;;6.63;;
51270;SDS011;37744;50.960;4.136;2023-03-01T13:57:21;9.68;;;6.22;;
51270;SDS011;37744;50.960;4.136;2023-03-01T13:59:47;12.18;;;6.65;;
51270;SDS011;37744;50.960;4.136;2023-03-01T14:02:13;9.45;;;6.80;;
51270;SDS011;37744;50.960;4.136;2023-03-01T14:04:38;11.77;;;7.07;;
51270;SDS011;37744;50.960;4.136;2023-03-01T14:07:18;12.52;;;6.10;;
51270;SDS011;37744;50.960;4.136;2023-03-01T14:09:44;10.38;;;6.55;;
51270;SDS011;37744;50.960;4.136;2023-03-01T14:14:42;13.75;;;8.27;;
51270;SDS011;37744;50.960;4.136;2023-03-01T14:20:00;11.85;;;7.15;;
51270;SDS011;37744;50.960;4.136;2023-03-01T14:22:33;14.88;;;8.25;;
51270;SDS011;37744;50.960;4.136;2023-03-01T14:24:59;13.68;;;7.72;;
51270;SDS011;37744;50.960;4.136;2023-03-01T14:27:26;8.85;;;6.40;;
51270;SDS011;37744;50.960;4.136;2023-03-01T14:30:26;8.65;;;6.22;;
51270;SDS011;37744;50.960;4.136;2023-03-01T14:32:48;11.57;;;6.55;;
51270;SDS011;37744;50.960;4.136;2023-03-01T14:35:25;9.60;;;5.82;;
51270;SDS011;37744;50.960;4.136;2023-03-01T14:37:50;10.25;;;6.20;;
51270;SDS011;37744;50.960;4.136;2023-03-01T14:40:23;10.05;;;6.10;;
51270;SDS011;37744;50.960;4.136;2023-03-01T14:42:49;11.68;;;6.80;;
51270;SDS011;37744;50.960;4.136;2023-03-01T14:45:14;12.55;;;6.20;;
51270;SDS011;37744;50.960;4.136;2023-03-01T14:47:40;9.15;;;6.35;;
51270;SDS011;37744;50.960;4.136;2023-03-01T14:50:15;9.60;;;5.47;;
51270;SDS011;37744;50.960;4.136;2023-03-01T14:52:42;11.20;;;6.13;;
51270;SDS011;37744;50.960;4.136;2023-03-01T14:55:16;9.52;;;6.40;;
51270;SDS011;37744;50.960;4.136;2023-03-01T14:57:43;10.35;;;6.07;;
51270;SDS011;37744;50.960;4.136;2023-03-01T15:00:20;9.00;;;6.13;;
51270;SDS011;37744;50.960;4.136;2023-03-01T15:02:47;10.30;;;6.25;;
51270;SDS011;37744;50.960;4.136;2023-03-01T15:05:13;9.63;;;5.80;;
51270;SDS011;37744;50.960;4.136;2023-03-01T15:07:40;8.57;;;5.78;;
51270;SDS011;37744;50.960;4.136;2023-03-01T15:10:06;10.88;;;6.38;;
51270;SDS011;37744;50.960;4.136;2023-03-01T15:12:36;10.68;;;6.22;;
51270;SDS011;37744;50.960;4.136;2023-03-01T15:15:08;11.85;;;5.80;;
51270;SDS011;37744;50.960;4.136;2023-03-01T15:17:43;7.90;;;5.53;;
51270;SDS011;37744;50.960;4.136;2023-03-01T15:20:15;12.50;;;6.28;;
51270;SDS011;37744;50.960;4.136;2023-03-01T15:22:44;12.48;;;6.35;;
51270;SDS011;37744;50.960;4.136;2023-03-01T15:25:16;11.70;;;7.00;;
51270;SDS011;37744;50.960;4.136;2023-03-01T15:27:46;12.27;;;6.72;;
51270;SDS011;37744;50.960;4.136;2023-03-01T15:30:18;10.98;;;6.28;;
51270;SDS011;37744;50.960;4.136;2023-03-01T15:32:45;9.45;;;6.85;;
51270;SDS011;37744;50.960;4.136;2023-03-01T15:37:55;10.45;;;6.05;;
51270;SDS011;37744;50.960;4.136;2023-03-01T15:40:27;11.05;;;6.70;;
51270;SDS011;37744;50.960;4.136;2023-03-01T15:43:03;10.88;;;6.75;;
51270;SDS011;37744;50.960;4.136;2023-03-01T15:45:29;9.50;;;6.70;;
51270;SDS011;37744;50.960;4.136;2023-03-01T15:47:56;10.82;;;6.30;;
51270;SDS011;37744;50.960;4.136;2023-03-01T15:52:54;9.77;;;6.55;;
51270;SDS011;37744;50.960;4.136;2023-03-01T15:55:22;9.50;;;6.05;;
51270;SDS011;37744;50.960;4.136;2023-03-01T15:57:48;11.40;;;6.78;;
51270;SDS011;37744;50.960;4.136;2023-03-01T16:00:13;11.27;;;6.47;;
51270;SDS011;37744;50.960;4.136;2023-03-01T16:02:40;12.13;;;6.05;;
51270;SDS011;37744;50.960;4.136;2023-03-01T16:05:05;10.68;;;6.22;;
51270;SDS011;37744;50.960;4.136;2023-03-01T16:07:31;13.52;;;6.68;;
51270;SDS011;37744;50.960;4.136;2023-03-01T16:09:56;11.48;;;6.95;;
51270;SDS011;37744;50.960;4.136;2023-03-01T16:12:22;10.43;;;6.50;;
51270;SDS011;37744;50.960;4.136;2023-03-01T16:14:49;11.95;;;6.53;;
51270;SDS011;37744;50.960;4.136;2023-03-01T16:17:14;12.18;;;6.95;;
51270;SDS011;37744;50.960;4.136;2023-03-01T16:19:40;9.73;;;6.70;;
51270;SDS011;37744;50.960;4.136;2023-03-01T16:22:06;10.13;;;6.45;;
51270;SDS011;37744;50.960;4.136;2023-03-01T16:24:31;10.45;;;6.57;;